Time;durP1;ratioP1;P1;durP2;ratioP2;P2;SDS_P1;SDS_P2;PMS_P1;PMS_P2;Temp;Humidity;BMP_temperature;BMP_pressure;BME280_temperature;BME280_humidity;BME280_pressure;Samples;Min_cycle;Max_cycle;Signal;HPM_P1;HPM_P2
2022/07/29 00:00:58;;;;;;;0.40;0.20;;;18.80;99.90;;;;;;4978020;28;20432;-68
2022/07/29 00:03:24;;;;;;;0.40;0.30;;;18.70;99.90;;;;;;5010430;28;20424;-68
2022/07/29 00:05:53;;;;;;;0.60;0.60;;;18.60;99.90;;;;;;4994024;28;20848;-67
2022/07/29 00:08:19;;;;;;;0.40;0.30;;;18.60;99.90;;;;;;4994107;28;20412;-67
2022/07/29 00:10:45;;;;;;;0.40;0.30;;;18.60;99.90;;;;;;4994179;28;20405;-68
2022/07/29 00:13:12;;;;;;;1.40;1.30;;;18.60;99.90;;;;;;4977747;28;20447;-68
2022/07/29 00:15:38;;;;;;;0.40;0.20;;;18.60;99.90;;;;;;4977804;28;20408;-67
2022/07/29 00:18:04;;;;;;;0.40;0.20;;;18.70;99.90;;;;;;4977943;28;20400;-67
2022/07/29 00:20:30;;;;;;;0.40;0.30;;;18.60;99.90;;;;;;4977312;28;20393;-67
2022/07/29 00:22:57;;;;;;;0.40;0.30;;;18.50;99.90;;;;;;4993853;28;20401;-68
2022/07/29 00:25:23;;;;;;;0.40;0.40;;;18.50;99.90;;;;;;4977784;28;20408;-67
2022/07/29 00:27:48;;;;;;;0.40;0.30;;;18.40;99.90;;;;;;4977477;28;20421;-68
2022/07/29 00:30:14;;;;;;;0.40;0.30;;;18.50;99.90;;;;;;4993842;28;20493;-67
2022/07/29 00:32:40;;;;;;;0.43;0.43;;;18.50;99.90;;;;;;4977224;28;20397;-66
2022/07/29 00:37:50;;;;;;;0.40;0.20;;;18.50;99.90;;;;;;5010494;28;20915;-66
2022/07/29 00:40:16;;;;;;;0.40;0.20;;;18.40;99.90;;;;;;4976664;28;20420;-66
2022/07/29 00:42:46;;;;;;;0.40;0.30;;;18.40;99.90;;;;;;4993521;28;20916;-67
2022/07/29 00:45:14;;;;;;;0.40;0.30;;;18.30;99.90;;;;;;4990431;28;20490;-67
2022/07/29 00:47:39;;;;;;;0.40;0.30;;;18.20;99.90;;;;;;4974128;28;20438;-67
2022/07/29 00:50:07;;;;;;;0.40;0.30;;;18.20;99.90;;;;;;4958207;28;20519;-66
2022/07/29 00:52:35;;;;;;;0.40;0.20;;;18.10;99.90;;;;;;4987949;28;20404;-66
2022/07/29 00:55:02;;;;;;;0.50;0.50;;;18.10;99.90;;;;;;4993926;28;20389;-66
2022/07/29 00:57:28;;;;;;;0.40;0.20;;;18.10;99.90;;;;;;4993563;28;20405;-67
2022/07/29 00:59:54;;;;;;;0.40;0.20;;;18.00;99.90;;;;;;5010071;28;20393;-66
2022/07/29 01:02:20;;;;;;;0.70;0.70;;;18.00;99.90;;;;;;4976963;28;20404;-66
2022/07/29 01:04:45;;;;;;;0.40;0.20;;;17.90;99.90;;;;;;4993868;28;20479;-67
2022/07/29 01:07:13;;;;;;;0.40;0.30;;;17.90;99.90;;;;;;4992963;28;20385;-67
2022/07/29 01:09:40;;;;;;;0.40;0.20;;;17.90;99.90;;;;;;5008769;28;20539;-66
2022/07/29 01:12:06;;;;;;;0.70;0.60;;;17.80;99.90;;;;;;4977596;28;20405;-66
2022/07/29 01:14:35;;;;;;;0.45;0.35;;;17.90;99.90;;;;;;4977230;28;20761;-67
2022/07/29 01:17:14;;;;;;;0.40;0.20;;;17.90;99.90;;;;;;4977738;28;20412;-67
2022/07/29 01:19:52;;;;;;;0.40;0.20;;;17.80;99.90;;;;;;5008248;28;20409;-67
2022/07/29 01:22:36;;;;;;;0.40;0.30;;;17.80;99.90;;;;;;5009519;28;20405;-68
2022/07/29 01:25:16;;;;;;;0.40;0.20;;;17.80;99.90;;;;;;5009981;28;20404;-68
2022/07/29 01:28:10;;;;;;;0.40;0.20;;;17.80;99.90;;;;;;5009416;28;20409;-68
2022/07/29 01:30:38;;;;;;;0.40;0.30;;;17.70;99.90;;;;;;5013798;28;20923;-68
2022/07/29 01:33:10;;;;;;;0.40;0.20;;;17.80;99.90;;;;;;5013262;28;20393;-68
2022/07/29 01:35:40;;;;;;;0.60;0.60;;;17.80;99.90;;;;;;5012637;28;20747;-67
2022/07/29 01:38:24;;;;;;;0.40;0.30;;;17.70;99.90;;;;;;4996741;28;20397;-69
2022/07/29 01:41:02;;;;;;;0.40;0.20;;;17.80;99.90;;;;;;5012787;28;20455;-68
2022/07/29 01:43:38;;;;;;;0.40;0.20;;;17.70;99.90;;;;;;5012261;28;20428;-68
2022/07/29 01:46:13;;;;;;;0.40;0.40;;;17.80;99.90;;;;;;5012754;28;20439;-69
2022/07/29 01:48:47;;;;;;;0.40;0.20;;;17.70;99.90;;;;;;5012493;28;20413;-69
2022/07/29 01:51:27;;;;;;;0.40;0.20;;;17.70;99.90;;;;;;5012883;28;20516;-68
2022/07/29 01:54:12;;;;;;;0.40;0.40;;;17.70;99.90;;;;;;5012918;28;20463;-68
2022/07/29 01:56:40;;;;;;;0.40;0.30;;;17.70;99.90;;;;;;5012532;28;20393;-68
2022/07/29 01:59:09;;;;;;;0.40;0.30;;;17.70;99.90;;;;;;4996479;28;20904;-68
2022/07/29 02:01:37;;;;;;;0.40;0.40;;;17.70;99.90;;;;;;5012026;28;20393;-68
2022/07/29 02:04:06;;;;;;;0.40;0.30;;;17.70;99.90;;;;;;4980010;28;20405;-68
2022/07/29 02:06:34;;;;;;;0.40;0.30;;;17.70;99.90;;;;;;5012460;28;20741;-68
2022/07/29 02:09:02;;;;;;;0.40;0.25;;;17.80;99.90;;;;;;5012462;28;20408;-68
2022/07/29 02:11:31;;;;;;;0.40;0.25;;;17.70;99.90;;;;;;4995763;28;20940;-68
2022/07/29 02:13:57;;;;;;;0.40;0.30;;;17.70;99.90;;;;;;4996441;28;20408;-68
2022/07/29 02:16:26;;;;;;;0.40;0.20;;;17.90;99.90;;;;;;4995376;28;20409;-68
2022/07/29 02:18:54;;;;;;;0.40;0.40;;;17.70;99.90;;;;;;5012865;28;20432;-68
2022/07/29 02:21:26;;;;;;;0.40;0.20;;;17.70;99.90;;;;;;4979672;28;20411;-69
2022/07/29 02:23:54;;;;;;;0.40;0.35;;;17.70;99.90;;;;;;5012278;28;20483;-68
2022/07/29 02:26:22;;;;;;;0.40;0.30;;;17.80;99.90;;;;;;4979735;28;20402;-69
2022/07/29 02:28:49;;;;;;;0.40;0.20;;;17.70;99.90;;;;;;5012409;28;20416;-68
2022/07/29 02:31:18;;;;;;;0.40;0.20;;;17.60;99.90;;;;;;4995924;28;20401;-68
2022/07/29 02:33:46;;;;;;;0.40;0.20;;;17.60;99.90;;;;;;5011631;28;20389;-66
2022/07/29 02:36:13;;;;;;;0.40;0.20;;;17.50;99.90;;;;;;5011885;28;20455;-66
2022/07/29 02:38:51;;;;;;;0.40;0.20;;;17.50;99.90;;;;;;4995545;28;20487;-68
2022/07/29 02:41:22;;;;;;;0.40;0.20;;;17.50;99.90;;;;;;5011900;28;20553;-68
2022/07/29 02:43:54;;;;;;;0.40;0.20;;;17.50;99.90;;;;;;4996229;28;20395;-68
2022/07/29 02:46:29;;;;;;;0.40;0.30;;;17.50;99.90;;;;;;5012053;28;20412;-66
2022/07/29 02:49:16;;;;;;;0.40;0.30;;;17.40;99.90;;;;;;5010385;28;20420;-66
2022/07/29 02:52:03;;;;;;;0.40;0.20;;;17.40;99.90;;;;;;5011600;28;20399;-69
2022/07/29 02:54:47;;;;;;;0.40;0.20;;;17.30;99.90;;;;;;5011442;28;20878;-68
2022/07/29 02:57:34;;;;;;;0.40;0.30;;;17.30;99.90;;;;;;5012113;28;20428;-70
2022/07/29 03:00:06;;;;;;;0.40;0.20;;;17.40;99.90;;;;;;5011471;28;20392;-69
2022/07/29 03:02:43;;;;;;;0.40;0.20;;;17.40;99.90;;;;;;5011537;28;20400;-68
2022/07/29 03:05:15;;;;;;;0.50;0.50;;;17.30;99.90;;;;;;5010940;28;20773;-68
2022/07/29 03:07:45;;;;;;;1.80;1.10;;;17.30;99.90;;;;;;5011190;28;20417;-68
2022/07/29 03:10:11;;;;;;;0.40;0.32;;;17.30;99.90;;;;;;5011150;28;20530;-69
2022/07/29 03:12:37;;;;;;;0.60;0.60;;;17.20;99.90;;;;;;4978864;28;20397;-67
2022/07/29 03:15:04;;;;;;;0.40;0.30;;;17.30;99.90;;;;;;4978641;28;20805;-68
2022/07/29 03:17:31;;;;;;;1.10;1.00;;;17.30;99.90;;;;;;4994969;28;20865;-68
2022/07/29 03:19:58;;;;;;;0.40;0.20;;;17.20;99.90;;;;;;4979038;28;20924;-68
2022/07/29 03:22:25;;;;;;;0.40;0.30;;;17.20;99.90;;;;;;4979004;28;20504;-68
2022/07/29 03:24:51;;;;;;;0.40;0.20;;;17.20;99.90;;;;;;4995074;28;20435;-68
2022/07/29 03:27:17;;;;;;;0.40;0.20;;;17.20;99.90;;;;;;4994727;28;20429;-68
2022/07/29 03:29:42;;;;;;;0.50;0.50;;;17.10;99.90;;;;;;4978167;28;20435;-68
2022/07/29 03:32:08;;;;;;;0.40;0.20;;;17.10;99.90;;;;;;4995030;28;20392;-69
2022/07/29 03:34:36;;;;;;;0.40;0.30;;;17.00;99.90;;;;;;4978397;28;20909;-66
2022/07/29 03:37:01;;;;;;;0.40;0.20;;;17.00;99.90;;;;;;4978840;28;20409;-68
2022/07/29 03:39:31;;;;;;;0.40;0.20;;;17.00;99.90;;;;;;4978180;28;20905;-68
2022/07/29 03:41:59;;;;;;;0.40;0.40;;;17.00;99.90;;;;;;5011435;28;20412;-68
2022/07/29 03:44:27;;;;;;;0.40;0.30;;;17.10;99.90;;;;;;5011140;28;20889;-68
2022/07/29 03:46:56;;;;;;;0.40;0.30;;;17.10;99.90;;;;;;4994313;28;20397;-68
2022/07/29 03:49:23;;;;;;;0.40;0.20;;;17.00;99.90;;;;;;5010514;28;20412;-68
2022/07/29 03:51:49;;;;;;;1.20;0.70;;;17.10;99.90;;;;;;5010259;28;20484;-69
2022/07/29 03:54:15;;;;;;;0.50;0.50;;;17.10;99.90;;;;;;4994680;28;20415;-66
2022/07/29 03:56:47;;;;;;;0.40;0.20;;;17.10;99.90;;;;;;4978763;28;20431;-68
2022/07/29 03:59:19;;;;;;;0.40;0.20;;;17.10;99.90;;;;;;5010893;28;20492;-68
2022/07/29 04:01:46;;;;;;;0.40;0.20;;;17.10;99.90;;;;;;4994627;28;20408;-66
2022/07/29 04:04:12;;;;;;;0.40;0.20;;;17.20;99.90;;;;;;4977805;28;20412;-68
2022/07/29 04:06:43;;;;;;;0.40;0.20;;;17.10;99.90;;;;;;4978064;28;20401;-69
2022/07/29 04:09:09;;;;;;;0.40;0.20;;;17.00;99.90;;;;;;4993964;28;20426;-68
2022/07/29 04:11:37;;;;;;;0.40;0.20;;;17.10;99.90;;;;;;5010670;28;20877;-67
2022/07/29 04:14:03;;;;;;;0.40;0.30;;;17.00;99.90;;;;;;5010153;28;20444;-67
2022/07/29 04:16:29;;;;;;;0.40;0.30;;;17.00;99.90;;;;;;4994373;28;20834;-66
2022/07/29 04:18:55;;;;;;;0.70;0.70;;;17.10;99.90;;;;;;5009708;28;20439;-67
2022/07/29 04:21:21;;;;;;;0.40;0.30;;;17.10;99.90;;;;;;4994631;28;20444;-66
2022/07/29 04:23:49;;;;;;;0.40;0.40;;;17.00;99.90;;;;;;4994386;28;20547;-66
2022/07/29 04:26:16;;;;;;;0.40;0.20;;;17.00;99.90;;;;;;4977527;28;20445;-66
2022/07/29 04:28:42;;;;;;;0.40;0.20;;;17.20;99.90;;;;;;4994188;28;20454;-67
2022/07/29 04:31:10;;;;;;;0.40;0.20;;;17.20;99.90;;;;;;5009852;28;20466;-67
2022/07/29 04:33:36;;;;;;;0.40;0.30;;;17.10;99.90;;;;;;4979961;28;20405;-66
2022/07/29 04:36:01;;;;;;;0.40;0.20;;;17.10;99.90;;;;;;4978242;28;20785;-66
2022/07/29 04:38:27;;;;;;;1.10;1.00;;;17.00;99.90;;;;;;4978083;28;20401;-66
2022/07/29 04:40:53;;;;;;;0.40;0.20;;;17.10;99.90;;;;;;4993420;28;20460;-66
2022/07/29 04:43:19;;;;;;;0.40;0.20;;;17.10;99.90;;;;;;4994179;28;20408;-66
2022/07/29 04:45:44;;;;;;;0.40;0.20;;;17.10;99.90;;;;;;4993637;28;20508;-66
2022/07/29 04:48:10;;;;;;;0.40;0.30;;;17.10;99.90;;;;;;4978276;28;20908;-66
2022/07/29 04:50:39;;;;;;;0.40;0.20;;;17.10;99.90;;;;;;4977159;28;20419;-66
2022/07/29 04:53:05;;;;;;;0.40;0.20;;;17.10;99.90;;;;;;5010322;28;20391;-66
2022/07/29 04:55:31;;;;;;;0.40;0.20;;;17.20;99.90;;;;;;4977834;28;20396;-66
2022/07/29 04:57:57;;;;;;;0.40;0.20;;;17.10;99.90;;;;;;4977889;28;20423;-66
2022/07/29 05:00:23;;;;;;;0.40;0.30;;;17.10;99.90;;;;;;4977266;28;20408;-66
2022/07/29 05:02:49;;;;;;;0.50;0.50;;;17.10;99.90;;;;;;4978082;28;20436;-66
2022/07/29 05:05:15;;;;;;;0.40;0.20;;;17.20;99.90;;;;;;4996029;28;20919;-66
2022/07/29 05:07:41;;;;;;;0.40;0.20;;;17.30;99.90;;;;;;4997529;28;20393;-66
2022/07/29 05:10:07;;;;;;;0.40;0.20;;;17.20;99.90;;;;;;5013794;28;20436;-66
2022/07/29 05:12:33;;;;;;;0.40;0.20;;;17.30;99.90;;;;;;4998119;28;20943;-68
2022/07/29 05:14:59;;;;;;;0.40;0.20;;;17.40;99.90;;;;;;5013172;28;20388;-67
2022/07/29 05:17:25;;;;;;;0.40;0.20;;;17.40;99.90;;;;;;4997704;28;20403;-67
2022/07/29 05:19:51;;;;;;;0.40;0.20;;;17.50;99.90;;;;;;4980977;28;20397;-67
2022/07/29 05:22:19;;;;;;;0.40;0.20;;;17.40;99.90;;;;;;4981154;28;20833;-67
2022/07/29 05:24:45;;;;;;;0.50;0.50;;;17.60;99.90;;;;;;5012995;28;20400;-67
2022/07/29 05:27:11;;;;;;;0.40;0.20;;;17.70;99.90;;;;;;4981252;28;20400;-67
2022/07/29 05:29:36;;;;;;;1.00;1.00;;;17.70;99.90;;;;;;4979919;28;20543;-67
2022/07/29 05:32:17;;;;;;;0.40;0.20;;;17.70;99.90;;;;;;4976386;28;20401;-67
2022/07/29 05:34:55;;;;;;;0.40;0.40;;;17.80;99.90;;;;;;5013454;28;21000;-67
2022/07/29 05:37:23;;;;;;;0.40;0.30;;;17.80;99.90;;;;;;5014245;28;20439;-67
2022/07/29 05:39:53;;;;;;;0.50;0.50;;;17.70;99.90;;;;;;5013885;28;20440;-66
2022/07/29 05:42:21;;;;;;;0.40;0.20;;;17.80;99.90;;;;;;5014649;28;20551;-67
2022/07/29 05:44:47;;;;;;;0.40;0.30;;;17.80;99.90;;;;;;4996729;28;20997;-67
2022/07/29 05:47:13;;;;;;;0.40;0.20;;;17.90;99.90;;;;;;4996412;28;20851;-67
2022/07/29 05:49:41;;;;;;;1.10;0.60;;;18.00;99.90;;;;;;4991872;28;20501;-67
2022/07/29 05:52:08;;;;;;;0.40;0.20;;;17.90;99.90;;;;;;5011637;28;20405;-66
2022/07/29 05:54:39;;;;;;;1.10;1.10;;;18.10;99.90;;;;;;4977513;28;20486;-67
2022/07/29 05:57:06;;;;;;;0.80;0.80;;;18.00;99.90;;;;;;4999140;28;20405;-67
2022/07/29 05:59:38;;;;;;;0.40;0.20;;;18.00;99.90;;;;;;5014073;28;20962;-67
2022/07/29 06:02:11;;;;;;;0.40;0.40;;;18.10;99.90;;;;;;5011552;28;20409;-68
2022/07/29 06:04:37;;;;;;;0.40;0.20;;;18.30;99.90;;;;;;5012522;28;20479;-67
2022/07/29 06:07:05;;;;;;;0.40;0.20;;;18.30;99.90;;;;;;5012100;28;20480;-67
2022/07/29 06:09:34;;;;;;;0.40;0.30;;;18.30;99.90;;;;;;5009324;28;20484;-67
2022/07/29 06:12:04;;;;;;;0.40;0.30;;;18.30;99.90;;;;;;5013624;28;20405;-68
2022/07/29 06:14:35;;;;;;;0.70;0.60;;;18.30;99.90;;;;;;4996778;28;20397;-67
2022/07/29 06:17:02;;;;;;;0.70;0.70;;;18.50;99.90;;;;;;5011919;28;20431;-67
2022/07/29 06:19:31;;;;;;;0.40;0.20;;;18.60;99.90;;;;;;5012310;28;20389;-67
2022/07/29 06:22:01;;;;;;;0.40;0.20;;;18.80;99.90;;;;;;5011511;28;20448;-68
2022/07/29 06:24:33;;;;;;;0.70;0.70;;;18.90;99.90;;;;;;5012612;28;20823;-68
2022/07/29 06:27:01;;;;;;;0.40;0.40;;;19.10;99.90;;;;;;5010616;28;20416;-68
2022/07/29 06:29:33;;;;;;;0.40;0.20;;;19.30;99.90;;;;;;5011504;28;20460;-69
2022/07/29 06:32:02;;;;;;;0.40;0.20;;;19.30;99.90;;;;;;4997086;28;20403;-69
2022/07/29 06:34:31;;;;;;;0.40;0.20;;;19.50;99.90;;;;;;5013667;28;20476;-68
2022/07/29 06:36:59;;;;;;;0.40;0.20;;;19.60;99.90;;;;;;4995836;28;21320;-68
2022/07/29 06:39:29;;;;;;;0.60;0.60;;;19.70;99.90;;;;;;5012201;28;20420;-68
2022/07/29 06:41:56;;;;;;;0.40;0.40;;;19.70;99.90;;;;;;5011354;28;20521;-68
2022/07/29 06:44:22;;;;;;;0.40;0.30;;;19.70;99.90;;;;;;4979492;28;20746;-67
2022/07/29 06:46:51;;;;;;;0.40;0.30;;;19.70;99.90;;;;;;4995240;28;20405;-68
2022/07/29 06:49:19;;;;;;;0.40;0.20;;;19.70;99.90;;;;;;5011413;28;20412;-68
2022/07/29 06:51:46;;;;;;;0.50;0.50;;;19.80;99.90;;;;;;4995031;28;20908;-67
2022/07/29 06:54:13;;;;;;;0.60;0.50;;;19.80;99.90;;;;;;5011708;28;20479;-68
2022/07/29 06:56:41;;;;;;;0.40;0.30;;;19.90;99.90;;;;;;4994882;28;20401;-66
2022/07/29 06:59:10;;;;;;;0.40;0.30;;;19.90;99.90;;;;;;4995164;28;20412;-68
2022/07/29 07:01:43;;;;;;;0.50;0.50;;;19.90;99.90;;;;;;5011478;28;20458;-68
2022/07/29 07:04:12;;;;;;;0.40;0.20;;;19.90;99.90;;;;;;5011766;28;20407;-68
2022/07/29 07:06:40;;;;;;;0.40;0.30;;;20.00;99.90;;;;;;4979705;28;20486;-68
2022/07/29 07:09:06;;;;;;;0.40;0.28;;;20.10;99.90;;;;;;5008596;28;20412;-69
2022/07/29 07:11:36;;;;;;;0.40;0.20;;;20.20;99.90;;;;;;5009572;28;20475;-69
2022/07/29 07:14:02;;;;;;;0.40;0.20;;;20.30;99.90;;;;;;4972366;28;20460;-69
2022/07/29 07:16:29;;;;;;;0.40;0.20;;;20.40;99.90;;;;;;5010533;28;20432;-68
2022/07/29 07:18:55;;;;;;;0.40;0.30;;;20.40;99.90;;;;;;5011160;28;20397;-70
2022/07/29 07:21:23;;;;;;;0.40;0.20;;;20.50;99.90;;;;;;5010981;28;20436;-68
2022/07/29 07:23:50;;;;;;;0.40;0.20;;;20.50;99.90;;;;;;5010305;28;20424;-68
2022/07/29 07:26:18;;;;;;;0.40;0.30;;;20.60;99.90;;;;;;4994929;28;20560;-68
2022/07/29 07:28:45;;;;;;;0.40;0.20;;;20.70;99.90;;;;;;5009677;28;20416;-69
2022/07/29 07:31:14;;;;;;;0.40;0.30;;;20.80;99.90;;;;;;5010951;28;20947;-69
2022/07/29 07:33:40;;;;;;;0.40;0.20;;;20.90;99.90;;;;;;4966536;28;20461;-69
2022/07/29 07:36:06;;;;;;;0.80;0.80;;;21.10;99.90;;;;;;4981893;28;20946;-69
2022/07/29 07:38:33;;;;;;;0.40;0.30;;;21.10;99.90;;;;;;4984948;28;20466;-66
2022/07/29 07:41:03;;;;;;;0.70;0.70;;;21.20;99.90;;;;;;5010037;28;20428;-68
2022/07/29 07:43:30;;;;;;;0.40;0.20;;;21.10;99.90;;;;;;4994571;28;20899;-68
2022/07/29 07:45:57;;;;;;;0.40;0.30;;;21.20;99.90;;;;;;4978197;28;20491;-68
2022/07/29 07:48:23;;;;;;;0.40;0.30;;;21.30;99.90;;;;;;4994067;28;20455;-68
2022/07/29 07:50:51;;;;;;;0.40;0.30;;;21.40;99.90;;;;;;5010278;28;20539;-68
2022/07/29 07:53:19;;;;;;;0.70;0.70;;;21.50;99.90;;;;;;4994340;28;20460;-66
2022/07/29 07:55:45;;;;;;;0.40;0.30;;;21.60;99.90;;;;;;5011024;28;20389;-68
2022/07/29 07:58:12;;;;;;;0.40;0.20;;;21.70;99.90;;;;;;5010944;28;20690;-68
2022/07/29 08:00:39;;;;;;;0.40;0.30;;;21.80;99.90;;;;;;5010543;28;20381;-68
2022/07/29 08:03:06;;;;;;;0.60;0.50;;;21.90;99.90;;;;;;4994210;28;20412;-66
2022/07/29 08:05:36;;;;;;;0.40;0.28;;;22.00;99.90;;;;;;4978884;28;20735;-65
2022/07/29 08:08:04;;;;;;;0.40;0.30;;;22.00;99.90;;;;;;5011880;28;20408;-67
2022/07/29 08:13:19;;;;;;;0.40;0.30;;;22.20;99.90;;;;;;5011200;28;20761;-67
2022/07/29 08:15:46;;;;;;;1.00;0.90;;;22.30;99.90;;;;;;4993102;28;20409;-67
2022/07/29 08:18:16;;;;;;;0.43;0.30;;;22.20;99.90;;;;;;4994149;28;20486;-67
2022/07/29 08:20:43;;;;;;;0.40;0.30;;;22.30;99.90;;;;;;5010905;28;20392;-67
2022/07/29 08:23:10;;;;;;;0.40;0.20;;;22.40;99.90;;;;;;5009994;28;20423;-67
2022/07/29 08:25:38;;;;;;;0.40;0.20;;;22.40;99.90;;;;;;4993541;28;20431;-67
2022/07/29 08:28:05;;;;;;;0.40;0.20;;;22.60;99.90;;;;;;5010013;28;21294;-67
2022/07/29 08:30:32;;;;;;;0.40;0.40;;;22.60;99.90;;;;;;4978349;28;20404;-67
2022/07/29 08:33:00;;;;;;;0.40;0.20;;;22.60;99.90;;;;;;5009840;28;20393;-65
2022/07/29 08:35:29;;;;;;;0.40;0.20;;;22.70;99.90;;;;;;4978086;28;20463;-67
2022/07/29 08:37:58;;;;;;;0.40;0.20;;;22.90;99.90;;;;;;5010214;28;20403;-67
2022/07/29 08:40:25;;;;;;;0.50;0.40;;;22.80;99.90;;;;;;4993995;28;20451;-67
2022/07/29 08:42:52;;;;;;;0.40;0.30;;;22.90;99.90;;;;;;4993834;28;20401;-67
2022/07/29 08:45:23;;;;;;;0.50;0.40;;;23.10;99.90;;;;;;5010975;28;20405;-68
2022/07/29 08:47:50;;;;;;;0.50;0.40;;;23.20;99.90;;;;;;4993425;28;20401;-67
2022/07/29 08:50:18;;;;;;;0.40;0.30;;;23.30;99.90;;;;;;4994113;28;20389;-67
2022/07/29 08:52:49;;;;;;;0.40;0.30;;;23.40;99.90;;;;;;5010018;28;20396;-68
2022/07/29 08:55:18;;;;;;;0.40;0.30;;;23.40;99.90;;;;;;4994866;28;20483;-67
2022/07/29 08:57:51;;;;;;;0.40;0.30;;;23.50;99.90;;;;;;5011009;28;20385;-67
2022/07/29 09:00:19;;;;;;;0.40;0.30;;;23.50;99.90;;;;;;5010913;28;20393;-67
2022/07/29 09:02:51;;;;;;;0.40;0.28;;;23.60;99.90;;;;;;4993875;28;20400;-67
2022/07/29 09:05:19;;;;;;;0.40;0.20;;;23.70;99.90;;;;;;5010642;28;20459;-68
2022/07/29 09:07:51;;;;;;;0.40;0.30;;;23.70;99.90;;;;;;4969054;28;20807;-68
2022/07/29 09:10:17;;;;;;;0.40;0.20;;;23.60;99.90;;;;;;4990644;28;20412;-68
2022/07/29 09:12:44;;;;;;;0.50;0.40;;;23.40;99.90;;;;;;4989539;28;20966;-68
2022/07/29 09:15:14;;;;;;;0.40;0.20;;;23.50;99.90;;;;;;4972599;28;20473;-66
2022/07/29 09:17:45;;;;;;;0.40;0.20;;;23.40;99.90;;;;;;4989577;28;20420;-67
2022/07/29 09:20:19;;;;;;;0.40;0.30;;;23.40;99.90;;;;;;4990152;28;20406;-67
2022/07/29 09:22:49;;;;;;;0.40;0.20;;;23.50;99.90;;;;;;4971667;28;20414;-66
2022/07/29 09:25:39;;;;;;;1.40;1.07;;;23.60;99.90;;;;;;4959369;28;20406;-66
2022/07/29 09:28:10;;;;;;;0.40;0.30;;;23.70;99.90;;;;;;4993630;28;20825;-66
2022/07/29 09:30:58;;;;;;;0.40;0.38;;;23.60;99.90;;;;;;5009968;28;20424;-67
2022/07/29 09:33:31;;;;;;;0.40;0.20;;;23.80;99.90;;;;;;4996012;28;20416;-66
2022/07/29 09:36:06;;;;;;;0.40;0.20;;;23.90;99.10;;;;;;4994593;28;20428;-67
2022/07/29 09:38:35;;;;;;;0.40;0.30;;;24.00;97.80;;;;;;5010095;28;20408;-66
2022/07/29 09:41:04;;;;;;;0.50;0.40;;;24.10;99.20;;;;;;4993012;28;20417;-67
2022/07/29 09:43:30;;;;;;;0.40;0.30;;;23.90;96.40;;;;;;4993873;28;20483;-66
2022/07/29 09:46:14;;;;;;;0.40;0.20;;;24.00;98.00;;;;;;4977113;28;20400;-66
2022/07/29 09:48:41;;;;;;;2.40;0.70;;;23.90;97.00;;;;;;4993762;28;20424;-67
2022/07/29 09:51:19;;;;;;;0.40;0.20;;;24.00;97.50;;;;;;4994090;28;20407;-66
2022/07/29 09:54:23;;;;;;;0.40;0.40;;;24.10;96.50;;;;;;4981132;28;20838;-66
2022/07/29 09:56:53;;;;;;;0.40;0.30;;;24.30;95.70;;;;;;5013197;28;20393;-67
2022/07/29 09:59:24;;;;;;;0.50;0.40;;;24.20;95.00;;;;;;5012372;28;20401;-68
2022/07/29 10:02:15;;;;;;;0.40;0.20;;;24.20;95.20;;;;;;5014191;28;20404;-67
2022/07/29 10:04:42;;;;;;;0.40;0.22;;;24.10;94.70;;;;;;5011850;28;20503;-68
2022/07/29 10:07:31;;;;;;;0.50;0.40;;;24.20;95.70;;;;;;5013467;28;21043;-67
2022/07/29 10:10:01;;;;;;;0.40;0.20;;;24.20;95.00;;;;;;5011717;28;20856;-67
2022/07/29 10:12:28;;;;;;;0.40;0.30;;;24.40;95.70;;;;;;4996707;28;20496;-67
2022/07/29 10:14:56;;;;;;;0.40;0.20;;;24.10;95.40;;;;;;5012037;28;20401;-68
2022/07/29 10:17:26;;;;;;;0.40;0.30;;;24.10;95.10;;;;;;4996941;28;20873;-67
2022/07/29 10:19:57;;;;;;;0.40;0.38;;;24.10;97.20;;;;;;5012508;28;20443;-67
2022/07/29 10:22:24;;;;;;;0.50;0.40;;;24.10;97.30;;;;;;4996874;28;20408;-67
2022/07/29 10:24:53;;;;;;;0.40;0.30;;;24.20;94.90;;;;;;4980029;28;20488;-67
2022/07/29 10:27:22;;;;;;;0.40;0.30;;;24.40;95.00;;;;;;5012595;28;20397;-68
2022/07/29 10:29:56;;;;;;;0.40;0.30;;;24.40;93.20;;;;;;5012783;28;20496;-66
2022/07/29 10:32:49;;;;;;;0.40;0.40;;;24.40;94.00;;;;;;4996586;28;20412;-67
2022/07/29 10:35:45;;;;;;;0.40;0.40;;;24.40;94.10;;;;;;4991186;28;20408;-67
2022/07/29 10:38:24;;;;;;;0.60;0.60;;;24.50;94.40;;;;;;5011592;28;20416;-67
2022/07/29 10:41:26;;;;;;;0.40;0.30;;;24.50;93.70;;;;;;5012591;28;20456;-68
2022/07/29 10:44:14;;;;;;;0.40;0.30;;;24.50;96.00;;;;;;5011181;28;20404;-67
2022/07/29 10:46:42;;;;;;;0.40;0.20;;;24.70;93.30;;;;;;5000615;28;20389;-66
2022/07/29 10:49:09;;;;;;;0.45;0.43;;;24.60;94.50;;;;;;4995403;28;20423;-67
2022/07/29 10:51:55;;;;;;;0.40;0.20;;;24.80;92.60;;;;;;5011959;28;20843;-67
2022/07/29 10:54:53;;;;;;;0.40;0.20;;;24.80;91.80;;;;;;5012028;28;20858;-67
2022/07/29 10:57:31;;;;;;;0.40;0.28;;;24.80;92.50;;;;;;5012178;28;20955;-67
2022/07/29 11:00:10;;;;;;;0.40;0.30;;;25.00;95.40;;;;;;5011429;28;20960;-67
2022/07/29 11:02:44;;;;;;;2.30;2.10;;;25.10;93.40;;;;;;5012231;28;20400;-67
2022/07/29 11:05:12;;;;;;;1.50;1.40;;;25.10;91.90;;;;;;4995166;28;20777;-69
2022/07/29 11:08:00;;;;;;;0.40;0.38;;;25.10;92.20;;;;;;5011591;28;20441;-67
2022/07/29 11:10:28;;;;;;;0.70;0.70;;;24.90;92.20;;;;;;5011394;28;20506;-67
2022/07/29 11:12:56;;;;;;;0.40;0.30;;;24.90;93.60;;;;;;4998145;28;20897;-67
2022/07/29 11:15:26;;;;;;;0.40;0.20;;;24.80;93.90;;;;;;4983932;28;20415;-67
2022/07/29 11:17:58;;;;;;;0.47;0.47;;;24.90;92.40;;;;;;4993569;28;20449;-68
2022/07/29 11:20:56;;;;;;;0.40;0.30;;;25.10;92.10;;;;;;5005246;28;20484;-67
2022/07/29 11:23:31;;;;;;;0.40;0.30;;;25.00;91.60;;;;;;5006977;28;20742;-67
2022/07/29 11:26:13;;;;;;;0.40;0.30;;;25.00;92.20;;;;;;5009917;28;20407;-68
2022/07/29 11:29:02;;;;;;;0.40;0.30;;;25.00;92.00;;;;;;5007506;28;20459;-67
2022/07/29 11:31:32;;;;;;;0.90;0.70;;;24.90;92.60;;;;;;5005906;28;20812;-67
2022/07/29 11:34:19;;;;;;;0.40;0.20;;;24.80;91.70;;;;;;5007542;28;20409;-67
2022/07/29 11:37:12;;;;;;;1.30;0.90;;;24.90;93.50;;;;;;5007282;28;20493;-67
2022/07/29 11:39:40;;;;;;;0.40;0.20;;;24.90;92.40;;;;;;4994235;28;20423;-67
2022/07/29 11:42:24;;;;;;;0.40;0.40;;;24.80;92.00;;;;;;4991515;28;20515;-67
2022/07/29 11:45:16;;;;;;;0.40;0.20;;;24.70;91.50;;;;;;5006454;28;20416;-67
2022/07/29 11:47:52;;;;;;;0.40;0.30;;;24.70;92.40;;;;;;5020502;28;20459;-67
2022/07/29 11:50:40;;;;;;;0.40;0.30;;;24.70;92.70;;;;;;5009140;28;20429;-67
2022/07/29 11:53:15;;;;;;;0.40;0.30;;;24.70;92.80;;;;;;5009155;28;20460;-67
2022/07/29 11:55:56;;;;;;;0.40;0.40;;;24.80;92.50;;;;;;5006173;28;20389;-67
2022/07/29 11:58:23;;;;;;;0.40;0.20;;;24.80;92.20;;;;;;4987360;28;20413;-68
2022/07/29 12:00:51;;;;;;;0.40;0.20;;;24.70;92.40;;;;;;5006504;28;20475;-67
2022/07/29 12:03:34;;;;;;;0.70;0.70;;;24.80;92.40;;;;;;5008950;28;20911;-67
2022/07/29 12:06:05;;;;;;;1.90;1.10;;;24.90;92.50;;;;;;4991538;28;20401;-67
2022/07/29 12:08:42;;;;;;;0.60;0.50;;;25.00;92.60;;;;;;4990909;28;20428;-67
2022/07/29 12:11:18;;;;;;;0.40;0.40;;;24.90;94.00;;;;;;5002342;28;20420;-67
2022/07/29 12:13:44;;;;;;;0.40;0.20;;;24.90;93.10;;;;;;5009316;28;20797;-67
2022/07/29 12:16:10;;;;;;;0.50;0.50;;;25.00;92.70;;;;;;4976298;28;20401;-67
2022/07/29 12:18:35;;;;;;;0.40;0.30;;;24.90;95.40;;;;;;4990434;28;20409;-67
2022/07/29 12:21:03;;;;;;;0.40;0.20;;;25.10;93.00;;;;;;4993121;28;20753;-67
2022/07/29 12:23:35;;;;;;;0.40;0.30;;;25.00;94.20;;;;;;5007005;28;20400;-67
2022/07/29 12:26:05;;;;;;;0.50;0.40;;;24.90;94.30;;;;;;5008893;28;20861;-68
2022/07/29 12:28:39;;;;;;;0.40;0.40;;;24.90;93.40;;;;;;4991709;28;20408;-67
2022/07/29 12:31:08;;;;;;;1.00;1.00;;;24.90;94.30;;;;;;4989112;28;20463;-68
2022/07/29 12:33:34;;;;;;;0.80;0.70;;;25.00;93.40;;;;;;5009106;28;20397;-68
2022/07/29 12:36:11;;;;;;;0.40;0.40;;;25.10;93.90;;;;;;4992268;28;20991;-68
2022/07/29 12:38:40;;;;;;;0.40;0.30;;;25.20;93.00;;;;;;4993057;28;20480;-67
2022/07/29 12:41:06;;;;;;;0.60;0.60;;;25.30;92.70;;;;;;5005931;28;20879;-67
2022/07/29 12:43:33;;;;;;;0.40;0.20;;;25.20;93.60;;;;;;4973599;28;20422;-67
2022/07/29 12:46:14;;;;;;;0.40;0.20;;;25.10;93.00;;;;;;4991544;28;20463;-68
2022/07/29 12:48:43;;;;;;;0.40;0.30;;;25.20;91.90;;;;;;4991819;28;20466;-68
2022/07/29 12:51:12;;;;;;;0.40;0.30;;;25.20;91.10;;;;;;5008878;28;20389;-66
2022/07/29 12:53:38;;;;;;;0.40;0.20;;;25.10;91.60;;;;;;4992369;28;20401;-67
2022/07/29 12:56:05;;;;;;;0.40;0.20;;;25.00;91.00;;;;;;4991349;28;20418;-67
2022/07/29 12:58:33;;;;;;;0.40;0.30;;;25.00;90.20;;;;;;4988815;28;20397;-67
2022/07/29 13:01:15;;;;;;;0.40;0.30;;;24.90;90.40;;;;;;5008427;28;20415;-68
2022/07/29 13:04:00;;;;;;;0.80;0.80;;;24.90;85.80;;;;;;5008703;28;20393;-67
2022/07/29 13:06:40;;;;;;;1.30;1.20;;;24.90;88.60;;;;;;4982494;28;21006;-67
2022/07/29 13:09:10;;;;;;;0.40;0.20;;;24.90;87.30;;;;;;5004637;28;20416;-67
2022/07/29 13:11:39;;;;;;;0.40;0.30;;;24.90;87.90;;;;;;5008821;28;20436;-67